createdAt,value
2022-12-24T00:01:19.298Z,62.10
2022-12-24T00:03:46.750Z,65.40
2022-12-24T00:06:18.255Z,65.50
2022-12-24T00:08:45.442Z,66.97
2022-12-24T00:11:12.732Z,64.88
2022-12-24T00:13:39.968Z,64.03
2022-12-24T00:16:07.304Z,60.38
2022-12-24T00:18:37.450Z,63.90
2022-12-24T00:23:34.386Z,63.75
2022-12-24T00:26:01.550Z,61.83
2022-12-24T00:28:28.790Z,57.35
2022-12-24T00:30:56.038Z,59.72
2022-12-24T00:33:24.840Z,65.35
2022-12-24T00:35:53.169Z,66.10
2022-12-24T00:38:20.404Z,56.28
2022-12-24T00:40:47.642Z,39.58
2022-12-24T00:43:14.861Z,57.03
2022-12-24T00:45:42.097Z,57.17
2022-12-24T00:48:09.347Z,41.33
2022-12-24T00:50:36.515Z,58.47
2022-12-24T00:53:04.910Z,62.15
2022-12-24T00:55:32.386Z,57.83
2022-12-24T00:57:59.577Z,56.15
2022-12-24T01:00:26.759Z,54.38
2022-12-24T01:02:54.108Z,53.30
2022-12-24T01:05:23.083Z,62.67
2022-12-24T01:07:50.281Z,62.10
2022-12-24T01:10:18.982Z,64.85
2022-12-24T01:12:46.510Z,38.63
2022-12-24T01:15:14.594Z,42.25
2022-12-24T01:17:41.969Z,60.58
2022-12-24T01:20:10.579Z,46.45
2022-12-24T01:22:37.744Z,53.40
2022-12-24T01:25:05.077Z,75.88
2022-12-24T01:27:33.221Z,51.33
2022-12-24T01:30:00.406Z,57.92
2022-12-24T01:32:27.566Z,55.78
2022-12-24T01:34:54.988Z,45.22
2022-12-24T01:37:22.131Z,57.35
2022-12-24T01:39:49.255Z,76.22
2022-12-24T01:42:39.361Z,55.60
2022-12-24T01:45:25.498Z,61.55
2022-12-24T01:47:52.664Z,55.10
2022-12-24T01:50:19.853Z,46.20
2022-12-24T01:52:47.065Z,55.85
2022-12-24T01:55:16.757Z,51.05
2022-12-24T01:57:46.652Z,48.95
2022-12-24T02:00:15.338Z,48.92
2022-12-24T02:02:44.426Z,54.65
2022-12-24T02:05:15.114Z,44.75
2022-12-24T02:07:42.770Z,43.20
2022-12-24T02:10:12.040Z,49.88
2022-12-24T02:12:39.924Z,54.55
2022-12-24T02:15:09.374Z,54.28
2022-12-24T02:17:55.402Z,44.50
2022-12-24T02:20:31.896Z,63.45
2022-12-24T02:23:17.620Z,59.28
2022-12-24T02:26:02.914Z,70.03
2022-12-24T02:28:36.237Z,65.68
2022-12-24T02:31:06.580Z,72.13
2022-12-24T02:33:36.591Z,64.10
2022-12-24T02:36:03.713Z,65.10
2022-12-24T02:38:35.726Z,66.60
2022-12-24T02:41:04.549Z,69.05
2022-12-24T02:43:36.361Z,52.10
2022-12-24T02:46:11.886Z,57.10
2022-12-24T02:48:40.930Z,75.22
2022-12-24T02:51:09.442Z,41.95
2022-12-24T02:53:36.913Z,73.85
2022-12-24T02:56:22.763Z,59.03
2022-12-24T02:58:49.913Z,97.00
2022-12-24T03:01:29.233Z,66.43
2022-12-24T03:04:05.604Z,72.93
2022-12-24T03:06:41.904Z,60.38
2022-12-24T03:09:25.100Z,61.83
2022-12-24T03:11:58.771Z,65.05
2022-12-24T03:14:27.047Z,58.30
2022-12-24T03:16:54.301Z,54.88
2022-12-24T03:19:22.675Z,57.42
2022-12-24T03:21:50.535Z,51.42
2022-12-24T03:24:17.779Z,73.40
2022-12-24T03:26:46.835Z,62.22
2022-12-24T03:29:14.276Z,44.60
2022-12-24T03:31:45.898Z,71.03
2022-12-24T03:34:13.645Z,69.87
2022-12-24T03:36:41.163Z,75.07
2022-12-24T03:39:09.341Z,57.20
2022-12-24T03:41:37.109Z,42.30
2022-12-24T03:44:04.775Z,52.80
2022-12-24T03:46:32.052Z,64.72
2022-12-24T03:48:59.346Z,60.25
2022-12-24T03:51:26.742Z,42.88
2022-12-24T03:53:54.448Z,44.85
2022-12-24T03:56:21.966Z,54.78
2022-12-24T03:58:49.172Z,41.15
2022-12-24T04:01:17.199Z,47.30
2022-12-24T04:03:44.826Z,53.97
2022-12-24T04:06:17.690Z,50.53
2022-12-24T04:08:45.174Z,50.40
2022-12-24T04:11:13.726Z,39.42
2022-12-24T04:13:40.912Z,50.47
2022-12-24T04:16:09.930Z,47.95
2022-12-24T04:18:37.706Z,48.25
2022-12-24T04:21:05.212Z,61.95
2022-12-24T04:23:32.994Z,45.20
2022-12-24T04:26:00.780Z,62.92
2022-12-24T04:28:29.672Z,55.38
2022-12-24T04:31:00.848Z,64.32
2022-12-24T04:33:28.172Z,47.53
2022-12-24T04:35:55.659Z,45.08
2022-12-24T04:38:22.800Z,47.50
2022-12-24T04:40:50.002Z,62.10
2022-12-24T04:43:17.137Z,52.90
2022-12-24T04:45:44.361Z,68.47
2022-12-24T04:48:11.598Z,53.33
2022-12-24T04:50:38.762Z,54.90
2022-12-24T04:53:05.984Z,49.58
2022-12-24T04:55:33.221Z,50.00
2022-12-24T04:58:00.397Z,57.10
2022-12-24T05:00:27.576Z,42.72
2022-12-24T05:02:54.850Z,48.97
2022-12-24T05:05:22.172Z,36.88
2022-12-24T05:07:49.397Z,41.75
2022-12-24T05:10:16.549Z,37.03
2022-12-24T05:12:43.752Z,48.83
2022-12-24T05:15:10.921Z,37.17
2022-12-24T05:17:38.089Z,54.03
2022-12-24T05:20:05.454Z,59.28
2022-12-24T05:22:51.398Z,41.42
2022-12-24T05:25:37.235Z,47.55
2022-12-24T05:28:04.402Z,39.72
2022-12-24T05:30:31.598Z,59.25
2022-12-24T05:32:58.908Z,43.72
2022-12-24T05:35:26.141Z,53.85
2022-12-24T05:37:53.272Z,43.70
2022-12-24T05:40:20.439Z,48.63
2022-12-24T05:42:47.578Z,47.50
2022-12-24T05:45:14.833Z,56.55
2022-12-24T05:47:43.632Z,48.55
2022-12-24T05:50:11.547Z,41.05
2022-12-24T05:52:38.766Z,58.38
2022-12-24T05:55:06.181Z,41.80
2022-12-24T05:57:33.388Z,35.97
2022-12-24T06:00:00.615Z,33.13
2022-12-24T06:02:27.831Z,41.88
2022-12-24T06:04:55.091Z,51.50
2022-12-24T06:07:22.413Z,46.72
2022-12-24T06:09:49.784Z,46.63
2022-12-24T06:12:17.022Z,40.92
2022-12-24T06:14:44.187Z,51.70
2022-12-24T06:17:11.342Z,46.20
2022-12-24T06:19:38.490Z,47.88
2022-12-24T06:22:05.653Z,41.92
2022-12-24T06:24:32.803Z,38.42
2022-12-24T06:26:59.934Z,49.88
2022-12-24T06:29:27.540Z,46.15
2022-12-24T06:31:54.771Z,50.95
2022-12-24T06:34:22.048Z,51.40
2022-12-24T06:36:49.324Z,48.30
2022-12-24T06:39:16.482Z,46.13
2022-12-24T06:41:43.859Z,43.65
2022-12-24T06:44:11.265Z,41.40
2022-12-24T06:46:38.863Z,43.03
2022-12-24T06:49:06.140Z,44.83
2022-12-24T06:51:33.321Z,47.28
2022-12-24T06:54:00.534Z,48.67
2022-12-24T06:56:27.759Z,43.90
2022-12-24T06:58:58.753Z,44.05
2022-12-24T07:01:28.841Z,37.17
2022-12-24T07:03:56.188Z,37.60
2022-12-24T07:06:25.816Z,35.35
2022-12-24T07:08:53.277Z,45.17
2022-12-24T07:11:20.663Z,42.58
2022-12-24T07:13:48.185Z,30.70
2022-12-24T07:16:15.796Z,35.22
2022-12-24T07:18:43.067Z,36.78
2022-12-24T07:21:10.857Z,33.25
2022-12-24T07:23:38.158Z,47.20
2022-12-24T07:26:06.684Z,42.55
2022-12-24T07:28:34.131Z,39.53
2022-12-24T07:31:01.442Z,28.90
2022-12-24T07:33:28.880Z,24.92
2022-12-24T07:36:00.513Z,31.83
2022-12-24T07:38:28.076Z,28.67
2022-12-24T07:40:55.295Z,32.05
2022-12-24T07:43:22.517Z,28.80
2022-12-24T07:45:49.667Z,28.50
2022-12-24T07:48:16.880Z,34.55
2022-12-24T07:50:44.205Z,31.73
2022-12-24T07:53:11.444Z,43.20
2022-12-24T07:55:38.660Z,23.38
2022-12-24T07:58:05.860Z,36.92
2022-12-24T08:00:33.151Z,31.73
2022-12-24T08:03:00.632Z,41.95
2022-12-24T08:05:28.297Z,29.65
2022-12-24T08:07:56.133Z,32.33
2022-12-24T08:10:23.384Z,32.28
2022-12-24T08:12:50.633Z,44.63
2022-12-24T08:15:18.056Z,41.90
2022-12-24T08:17:45.330Z,35.25
2022-12-24T08:20:12.695Z,35.47
2022-12-24T08:22:39.905Z,39.15
2022-12-24T08:25:07.406Z,27.05
2022-12-24T08:27:34.556Z,39.75
2022-12-24T08:30:01.725Z,36.63
2022-12-24T08:32:28.857Z,41.67
2022-12-24T08:34:56.023Z,47.20
2022-12-24T08:37:23.223Z,25.10
2022-12-24T08:39:50.403Z,28.02
2022-12-24T08:42:17.678Z,20.83
2022-12-24T08:44:44.971Z,24.45
2022-12-24T08:47:12.195Z,33.60
2022-12-24T08:49:40.085Z,41.10
2022-12-24T08:52:07.537Z,35.70
2022-12-24T08:54:34.796Z,32.05
2022-12-24T08:57:01.927Z,31.40
2022-12-24T08:59:29.128Z,37.03
2022-12-24T09:01:56.503Z,26.10
2022-12-24T09:04:23.855Z,37.40
2022-12-24T09:06:51.048Z,34.10
2022-12-24T09:09:18.284Z,40.75
2022-12-24T09:11:45.444Z,34.63
2022-12-24T09:14:12.739Z,43.60
2022-12-24T09:16:40.110Z,36.70
2022-12-24T09:19:07.314Z,27.38
2022-12-24T09:21:34.472Z,33.88
2022-12-24T09:24:01.790Z,37.03
2022-12-24T09:26:30.098Z,35.60
2022-12-24T09:28:57.857Z,36.63
2022-12-24T09:31:25.134Z,38.22
2022-12-24T09:33:52.398Z,26.35
2022-12-24T09:36:20.350Z,33.67
2022-12-24T09:38:47.672Z,31.75
2022-12-24T09:41:33.857Z,35.75
2022-12-24T09:44:08.875Z,32.17
2022-12-24T09:46:38.470Z,28.17
2022-12-24T09:49:09.477Z,46.47
2022-12-24T09:51:41.904Z,37.05
2022-12-24T09:54:13.746Z,50.47
2022-12-24T09:56:42.396Z,42.47
2022-12-24T09:59:17.317Z,39.67
2022-12-24T10:01:44.752Z,51.60
2022-12-24T10:04:14.476Z,40.58
2022-12-24T10:06:50.774Z,50.33
2022-12-24T10:09:30.018Z,41.03
2022-12-24T10:12:16.078Z,42.05
2022-12-24T10:14:43.298Z,40.22
2022-12-24T10:17:25.843Z,50.30
2022-12-24T10:19:55.735Z,61.08
2022-12-24T10:22:32.293Z,50.35
2022-12-24T10:25:10.640Z,53.20
2022-12-24T10:27:42.293Z,57.20
2022-12-24T10:30:20.410Z,41.85
2022-12-24T10:32:51.931Z,41.75
2022-12-24T10:35:35.673Z,65.13
2022-12-24T10:38:04.351Z,63.38
2022-12-24T10:40:43.050Z,52.22
2022-12-24T10:43:18.584Z,50.80
2022-12-24T10:45:50.941Z,38.20
2022-12-24T10:48:38.384Z,35.17
2022-12-24T10:51:07.785Z,47.13
2022-12-24T10:53:34.977Z,49.28
2022-12-24T10:56:04.326Z,49.88
2022-12-24T10:58:31.576Z,42.63
2022-12-24T11:00:58.864Z,41.90
2022-12-24T11:03:36.381Z,40.22
2022-12-24T11:06:08.558Z,47.40
2022-12-24T11:08:36.369Z,47.35
2022-12-24T11:11:05.773Z,37.42
2022-12-24T11:13:41.568Z,41.50
2022-12-24T11:16:16.334Z,42.13
2022-12-24T11:18:51.376Z,38.40
2022-12-24T11:21:20.359Z,43.40
2022-12-24T11:23:58.456Z,60.90
2022-12-24T11:26:27.545Z,41.92
2022-12-24T11:29:14.476Z,46.88
2022-12-24T11:31:42.443Z,43.10
2022-12-24T11:34:22.484Z,41.90
2022-12-24T11:36:50.633Z,40.58
2022-12-24T11:39:22.506Z,41.58
2022-12-24T11:41:53.274Z,41.80
2022-12-24T11:44:25.323Z,32.10
2022-12-24T11:46:56.704Z,41.42
2022-12-24T11:49:27.053Z,28.88
2022-12-24T11:52:12.764Z,43.30
2022-12-24T11:55:00.689Z,47.17
2022-12-24T11:57:32.033Z,39.50
2022-12-24T11:59:59.277Z,40.55
2022-12-24T12:02:28.627Z,42.40
2022-12-24T12:05:03.985Z,50.28
2022-12-24T12:07:32.210Z,42.40
2022-12-24T12:10:08.167Z,51.53
2022-12-24T12:12:36.674Z,33.22
2022-12-24T12:15:12.199Z,60.35
2022-12-24T12:17:39.352Z,33.40
2022-12-24T12:20:19.686Z,45.55
2022-12-24T12:23:09.562Z,59.15
2022-12-24T12:25:39.020Z,43.55
2022-12-24T12:28:09.006Z,35.88
2022-12-24T12:30:36.542Z,31.85
2022-12-24T12:33:20.129Z,41.25
2022-12-24T12:35:47.873Z,40.92
2022-12-24T12:38:20.306Z,44.72
2022-12-24T12:41:01.945Z,44.22
2022-12-24T12:43:41.043Z,56.80
2022-12-24T12:46:26.786Z,40.70
2022-12-24T12:49:06.293Z,38.85
2022-12-24T12:51:38.832Z,35.72
2022-12-24T12:54:13.374Z,36.20
2022-12-24T12:56:44.442Z,44.17
2022-12-24T12:59:15.528Z,40.05
2022-12-24T13:01:46.215Z,41.10
2022-12-24T13:04:32.405Z,53.03
2022-12-24T13:06:59.568Z,39.80
2022-12-24T13:09:26.726Z,34.90
2022-12-24T13:12:15.890Z,39.58
2022-12-24T13:14:43.043Z,45.53
2022-12-24T13:17:19.088Z,34.33
2022-12-24T13:19:49.005Z,42.92
2022-12-24T13:22:22.081Z,48.35
2022-12-24T13:24:52.257Z,46.65
2022-12-24T13:27:21.765Z,39.78
2022-12-24T13:29:53.553Z,36.35
2022-12-24T13:32:20.689Z,34.97
2022-12-24T13:34:50.658Z,47.42
2022-12-24T13:37:21.969Z,57.63
2022-12-24T13:40:09.598Z,49.75
2022-12-24T13:42:48.914Z,46.88
2022-12-24T13:45:42.735Z,50.28
2022-12-24T13:48:09.916Z,41.00
2022-12-24T13:50:43.269Z,40.90
2022-12-24T13:53:23.431Z,53.33
2022-12-24T13:55:52.215Z,30.98
2022-12-24T13:58:22.860Z,35.85
2022-12-24T14:00:56.553Z,36.72
2022-12-24T14:03:23.884Z,27.92
2022-12-24T14:05:53.100Z,32.47
2022-12-24T14:08:34.802Z,45.45
2022-12-24T14:11:37.985Z,36.20
2022-12-24T14:14:05.446Z,42.90
2022-12-24T14:16:42.027Z,37.10
2022-12-24T14:19:28.093Z,40.50
2022-12-24T14:22:04.540Z,45.40
2022-12-24T14:24:36.359Z,45.53
2022-12-24T14:27:25.532Z,40.17
2022-12-24T14:30:08.735Z,50.20
2022-12-24T14:32:36.992Z,54.50
2022-12-24T14:35:08.739Z,41.78
2022-12-24T14:37:36.292Z,46.75
2022-12-24T14:40:03.572Z,38.78
2022-12-24T14:42:42.013Z,49.78
2022-12-24T14:45:17.777Z,39.80
2022-12-24T14:47:47.950Z,53.60
2022-12-24T14:50:53.580Z,39.40
2022-12-24T14:53:32.655Z,45.08
2022-12-24T14:55:59.932Z,44.45
2022-12-24T14:58:34.264Z,50.63
2022-12-24T15:01:03.078Z,46.75
2022-12-24T15:03:33.343Z,51.05
2022-12-24T15:06:02.596Z,46.50
2022-12-24T15:08:38.741Z,45.15
2022-12-24T15:11:07.828Z,58.08
2022-12-24T15:13:41.390Z,34.00
2022-12-24T15:16:09.725Z,55.13
2022-12-24T15:18:38.669Z,42.50
2022-12-24T15:21:07.889Z,58.33
2022-12-24T15:23:38.461Z,46.20
2022-12-24T15:26:15.553Z,31.13
2022-12-24T15:28:42.862Z,56.97
2022-12-24T15:31:29.490Z,40.80
2022-12-24T15:33:57.535Z,65.28
2022-12-24T15:36:26.682Z,50.33
2022-12-24T15:38:55.829Z,35.70
2022-12-24T15:41:25.141Z,43.63
2022-12-24T15:43:53.762Z,46.40
2022-12-24T15:46:21.023Z,53.03
2022-12-24T15:48:49.140Z,43.97
2022-12-24T15:51:22.627Z,37.35
2022-12-24T15:53:50.273Z,59.95
2022-12-24T15:56:34.906Z,46.15
2022-12-24T15:59:36.113Z,46.50
2022-12-24T16:02:27.331Z,41.38
2022-12-24T16:04:54.712Z,31.83
2022-12-24T16:07:25.596Z,35.20
2022-12-24T16:10:12.788Z,48.80
2022-12-24T16:12:40.297Z,52.53
2022-12-24T16:15:15.358Z,50.58
2022-12-24T16:17:48.512Z,36.80
2022-12-24T16:20:20.903Z,48.63
2022-12-24T16:22:49.146Z,31.13
2022-12-24T16:25:20.910Z,43.70
2022-12-24T16:27:48.041Z,36.60
2022-12-24T16:30:15.294Z,36.97
2022-12-24T16:32:42.581Z,39.17
2022-12-24T16:35:39.232Z,26.70
2022-12-24T16:38:06.364Z,41.03
2022-12-24T16:40:33.557Z,28.08
2022-12-24T16:43:19.565Z,32.28
2022-12-24T16:45:47.507Z,35.55
2022-12-24T16:48:19.750Z,39.83
2022-12-24T16:50:47.027Z,31.80
2022-12-24T16:53:18.470Z,37.33
2022-12-24T16:55:47.543Z,41.25
2022-12-24T16:58:15.893Z,42.72
2022-12-24T17:00:43.236Z,23.13
2022-12-24T17:03:10.503Z,31.48
2022-12-24T17:05:38.896Z,27.23
2022-12-24T17:08:06.727Z,30.55
2022-12-24T17:10:34.397Z,23.58
2022-12-24T17:13:01.670Z,25.63
2022-12-24T17:15:29.016Z,40.47
2022-12-24T17:17:56.282Z,22.42
2022-12-24T17:20:24.497Z,28.92
2022-12-24T17:22:52.005Z,20.08
2022-12-24T17:25:19.236Z,28.42
2022-12-24T17:27:46.440Z,30.25
2022-12-24T17:30:13.836Z,29.05
2022-12-24T17:32:41.074Z,35.08
2022-12-24T17:35:08.606Z,29.38
2022-12-24T17:37:35.772Z,25.10
2022-12-24T17:40:02.988Z,27.00
2022-12-24T17:42:30.209Z,19.35
2022-12-24T17:44:57.469Z,26.67
2022-12-24T17:47:24.624Z,28.60
2022-12-24T17:49:51.869Z,20.45
2022-12-24T17:52:19.114Z,27.13
2022-12-24T17:54:46.331Z,22.02
2022-12-24T17:57:13.583Z,17.85
2022-12-24T17:59:40.734Z,17.83
2022-12-24T18:02:08.332Z,21.85
2022-12-24T18:04:35.617Z,19.90
2022-12-24T18:07:04.139Z,13.45
2022-12-24T18:09:31.464Z,17.25
2022-12-24T18:11:58.713Z,14.55
2022-12-24T18:14:26.119Z,13.13
2022-12-24T18:16:53.359Z,11.13
2022-12-24T18:19:20.545Z,15.90
2022-12-24T18:21:47.732Z,10.88
2022-12-24T18:24:14.963Z,16.02
2022-12-24T18:26:43.988Z,6.68
2022-12-24T18:29:11.132Z,9.55
2022-12-24T18:31:38.340Z,10.35
2022-12-24T18:34:06.869Z,10.85
2022-12-24T18:36:34.441Z,15.75
2022-12-24T18:39:01.796Z,15.73
2022-12-24T18:41:30.226Z,24.15
2022-12-24T18:43:57.840Z,19.02
2022-12-24T18:46:26.581Z,4.57
2022-12-24T18:48:53.974Z,9.73
2022-12-24T18:51:22.310Z,11.23
2022-12-24T18:53:49.594Z,18.60
2022-12-24T18:56:18.669Z,17.90
2022-12-24T18:58:46.399Z,13.05
2022-12-24T19:01:15.384Z,7.43
2022-12-24T19:03:42.746Z,11.82
2022-12-24T19:06:10.004Z,12.32
2022-12-24T19:11:24.984Z,9.88
2022-12-24T19:13:55.188Z,5.47
2022-12-24T19:16:22.514Z,11.65
2022-12-24T19:18:49.955Z,13.40
2022-12-24T19:21:17.849Z,16.52
2022-12-24T19:23:45.885Z,13.75
2022-12-24T19:26:13.912Z,18.40
2022-12-24T19:28:41.640Z,9.55
2022-12-24T19:31:12.995Z,16.08
2022-12-24T19:33:44.466Z,13.73
2022-12-24T19:36:13.449Z,11.23
2022-12-24T19:38:40.973Z,13.00
2022-12-24T19:41:08.960Z,11.35
2022-12-24T19:43:43.954Z,13.98
2022-12-24T19:46:12.436Z,8.40
2022-12-24T19:48:39.809Z,7.22
2022-12-24T19:51:08.526Z,12.95
2022-12-24T19:53:36.100Z,6.30
2022-12-24T19:56:03.366Z,7.53
2022-12-24T19:58:32.668Z,13.27
2022-12-24T20:01:12.790Z,12.32
2022-12-24T20:03:41.997Z,12.10
2022-12-24T20:06:09.553Z,18.38
2022-12-24T20:08:37.343Z,13.25
2022-12-24T20:11:06.544Z,22.75
2022-12-24T20:13:34.710Z,8.27
2022-12-24T20:16:21.089Z,23.70
2022-12-24T20:18:54.949Z,10.52
2022-12-24T20:21:22.788Z,16.92
2022-12-24T20:23:50.198Z,11.70
2022-12-24T20:26:18.335Z,14.93
2022-12-24T20:28:46.080Z,13.65
2022-12-24T20:31:21.011Z,10.85
2022-12-24T20:33:48.622Z,11.95
2022-12-24T20:36:16.885Z,14.18
2022-12-24T20:38:44.679Z,15.38
2022-12-24T20:41:13.691Z,21.85
2022-12-24T20:43:47.447Z,14.50
2022-12-24T20:46:15.611Z,25.35
2022-12-24T20:48:42.907Z,14.20
2022-12-24T20:51:11.237Z,21.23
2022-12-24T20:53:39.252Z,13.02
2022-12-24T20:56:06.806Z,17.33
2022-12-24T20:58:34.103Z,18.05
2022-12-24T21:01:01.367Z,18.20
2022-12-24T21:03:28.618Z,17.23
2022-12-24T21:05:55.854Z,18.55
2022-12-24T21:08:23.038Z,7.43
2022-12-24T21:11:10.182Z,9.73
2022-12-24T21:13:37.483Z,12.82
2022-12-24T21:16:04.884Z,14.18
2022-12-24T21:18:32.068Z,11.40
2022-12-24T21:20:59.217Z,9.10
2022-12-24T21:23:26.431Z,17.65
2022-12-24T21:25:59.979Z,14.52
2022-12-24T21:28:27.192Z,9.50
2022-12-24T21:30:54.404Z,12.13
2022-12-24T21:33:21.667Z,13.57
2022-12-24T21:35:48.942Z,14.00
2022-12-24T21:38:16.185Z,14.93
2022-12-24T21:40:43.363Z,8.05
2022-12-24T21:43:10.541Z,6.45
2022-12-24T21:45:40.951Z,12.10
2022-12-24T21:48:28.090Z,12.10
2022-12-24T21:50:55.232Z,19.98
2022-12-24T21:53:41.052Z,12.75
2022-12-24T21:56:09.057Z,16.63
2022-12-24T21:58:36.241Z,13.30
2022-12-24T22:01:10.297Z,18.95
2022-12-24T22:03:40.897Z,12.25
2022-12-24T22:06:08.655Z,17.77
2022-12-24T22:08:54.844Z,16.05
2022-12-24T22:11:40.649Z,8.50
2022-12-24T22:14:07.813Z,4.32
2022-12-24T22:16:35.072Z,12.63
2022-12-24T22:19:02.282Z,10.77
2022-12-24T22:21:29.453Z,4.90
2022-12-24T22:23:56.731Z,12.85
2022-12-24T22:26:23.975Z,20.75
2022-12-24T22:28:51.133Z,11.10
2022-12-24T22:31:23.804Z,11.27
2022-12-24T22:36:18.115Z,10.80
2022-12-24T22:38:45.694Z,12.35
2022-12-24T22:41:14.127Z,7.93
2022-12-24T22:43:41.812Z,9.57
2022-12-24T22:46:10.018Z,15.40
2022-12-24T22:48:37.631Z,12.90
2022-12-24T22:51:08.620Z,13.90
2022-12-24T22:53:36.325Z,12.43
2022-12-24T22:56:03.742Z,15.52
2022-12-24T22:58:31.036Z,3.83
2022-12-24T23:00:58.373Z,12.57
2022-12-24T23:03:25.665Z,14.57
2022-12-24T23:05:57.555Z,10.88
2022-12-24T23:08:25.125Z,10.10
2022-12-24T23:10:52.953Z,15.95
2022-12-24T23:13:40.086Z,17.33
2022-12-24T23:16:07.666Z,16.73
2022-12-24T23:18:34.927Z,17.58
2022-12-24T23:21:05.352Z,10.45
2022-12-24T23:23:36.887Z,20.08
2022-12-24T23:26:09.436Z,17.73
2022-12-24T23:28:37.306Z,15.00
2022-12-24T23:31:04.812Z,9.35
2022-12-24T23:33:32.003Z,11.65
2022-12-24T23:35:59.160Z,15.98
2022-12-24T23:38:26.335Z,7.97
2022-12-24T23:41:00.127Z,15.63
2022-12-24T23:43:27.716Z,5.43
2022-12-24T23:45:55.274Z,9.38
2022-12-24T23:48:23.559Z,17.98
2022-12-24T23:50:50.944Z,23.17
2022-12-24T23:53:19.062Z,16.23
2022-12-24T23:55:46.535Z,12.27
2022-12-24T23:58:14.606Z,9.30
